createdAt,value
2017-06-27T00:00:50.124Z,0
2017-06-27T00:01:50.122Z,0
2017-06-27T00:02:50.110Z,0
2017-06-27T00:03:50.103Z,0
2017-06-27T00:04:50.099Z,0
2017-06-27T00:05:50.092Z,0
2017-06-27T00:06:50.093Z,0
2017-06-27T00:07:50.084Z,0
2017-06-27T00:08:50.078Z,0
2017-06-27T00:09:50.080Z,0
2017-06-27T00:10:50.066Z,0
2017-06-27T00:11:50.058Z,0
2017-06-27T00:12:49.749Z,0
2017-06-27T00:13:50.045Z,0
2017-06-27T00:14:50.047Z,0
2017-06-27T00:15:50.039Z,0
2017-06-27T00:16:50.027Z,0
2017-06-27T00:17:49.722Z,0
2017-06-27T00:18:50.018Z,0
2017-06-27T00:19:49.712Z,0
2017-06-27T00:20:50.004Z,0
2017-06-27T00:21:50.005Z,0
2017-06-27T00:22:50.000Z,0
2017-06-27T00:23:49.990Z,0
2017-06-27T00:24:49.979Z,0
2017-06-27T00:25:49.978Z,0
2017-06-27T00:26:49.667Z,0
2017-06-27T00:27:49.968Z,0
2017-06-27T00:28:49.958Z,0
2017-06-27T00:29:49.951Z,0
2017-06-27T00:30:49.644Z,0
2017-06-27T00:31:49.941Z,0
2017-06-27T00:32:49.939Z,0
2017-06-27T00:33:49.928Z,0
2017-06-27T00:34:49.925Z,0
2017-06-27T00:35:49.957Z,0
2017-06-27T00:36:49.916Z,0
2017-06-27T00:37:49.913Z,0
2017-06-27T00:38:49.594Z,0
2017-06-27T00:39:49.898Z,0
2017-06-27T00:40:49.892Z,0
2017-06-27T00:41:49.885Z,0
2017-06-27T00:42:49.879Z,0
2017-06-27T00:43:49.873Z,0
2017-06-27T00:44:49.572Z,0
2017-06-27T00:45:49.859Z,0
2017-06-27T00:46:49.853Z,0
2017-06-27T00:47:49.848Z,0
2017-06-27T00:48:49.845Z,0
2017-06-27T00:49:49.532Z,0
2017-06-27T00:50:49.837Z,0
2017-06-27T00:51:49.837Z,0
2017-06-27T00:52:49.820Z,0
2017-06-27T00:53:49.814Z,0
2017-06-27T00:54:49.805Z,0
2017-06-27T00:55:49.802Z,0
2017-06-27T00:56:49.797Z,0
2017-06-27T00:57:49.802Z,0
2017-06-27T00:58:49.782Z,0
2017-06-27T00:59:49.776Z,0
2017-06-27T01:00:49.773Z,0
2017-06-27T01:01:49.789Z,0
2017-06-27T01:02:49.758Z,0
2017-06-27T01:03:49.754Z,0
2017-06-27T01:04:49.743Z,0
2017-06-27T01:05:49.751Z,0
2017-06-27T01:06:49.736Z,0
2017-06-27T01:07:49.725Z,0
2017-06-27T01:08:49.726Z,0
2017-06-27T01:09:49.717Z,0
2017-06-27T01:10:49.712Z,0
2017-06-27T01:11:49.704Z,0
2017-06-27T01:12:49.698Z,0
2017-06-27T01:13:49.696Z,0
2017-06-27T01:14:49.686Z,0
2017-06-27T01:15:49.680Z,0
2017-06-27T01:16:49.378Z,0
2017-06-27T01:17:49.674Z,0
2017-06-27T01:18:49.662Z,0
2017-06-27T01:19:49.658Z,0
2017-06-27T01:20:49.650Z,0
2017-06-27T01:21:49.648Z,0
2017-06-27T01:22:49.644Z,0
2017-06-27T01:23:49.631Z,0
2017-06-27T01:24:49.624Z,0
2017-06-27T01:25:49.624Z,0
2017-06-27T01:26:49.609Z,0
2017-06-27T01:27:49.605Z,0
2017-06-27T01:28:49.605Z,0
2017-06-27T01:29:49.593Z,0
2017-06-27T01:30:49.593Z,0
2017-06-27T01:31:49.611Z,0
2017-06-27T01:32:49.577Z,0
2017-06-27T01:33:49.569Z,0
2017-06-27T01:34:49.562Z,0
2017-06-27T01:35:49.559Z,0
2017-06-27T01:36:49.557Z,0
2017-06-27T01:37:49.241Z,0
2017-06-27T01:38:49.537Z,0
2017-06-27T01:39:49.533Z,0
2017-06-27T01:40:49.239Z,0
2017-06-27T01:41:49.520Z,0
2017-06-27T01:42:49.512Z,0
2017-06-27T01:43:49.508Z,0
2017-06-27T01:44:49.501Z,0
2017-06-27T01:45:49.500Z,0
2017-06-27T01:46:49.491Z,0
2017-06-27T01:47:49.181Z,0
2017-06-27T01:48:49.173Z,0
2017-06-27T01:49:49.163Z,4
2017-06-27T01:50:49.477Z,4
2017-06-27T01:51:49.458Z,4
2017-06-27T01:52:49.450Z,0
2017-06-27T01:53:49.447Z,0
2017-06-27T01:54:49.436Z,4
2017-06-27T01:55:49.434Z,4
2017-06-27T01:56:49.424Z,0
2017-06-27T01:57:49.420Z,4
2017-06-27T01:58:49.418Z,4
2017-06-27T01:59:49.418Z,4
2017-06-27T02:00:49.401Z,4
2017-06-27T02:01:49.399Z,4
2017-06-27T02:02:49.389Z,8
2017-06-27T02:03:49.380Z,8
2017-06-27T02:04:49.376Z,8
2017-06-27T02:05:49.068Z,8
2017-06-27T02:06:49.365Z,8
2017-06-27T02:07:49.358Z,8
2017-06-27T02:08:49.045Z,12
2017-06-27T02:09:49.038Z,16
2017-06-27T02:10:49.336Z,16
2017-06-27T02:11:49.338Z,16
2017-06-27T02:12:49.321Z,16
2017-06-27T02:13:49.320Z,20
2017-06-27T02:14:49.310Z,24
2017-06-27T02:15:49.304Z,28
2017-06-27T02:16:49.260Z,32
2017-06-27T02:17:49.290Z,32
2017-06-27T02:18:49.286Z,36
2017-06-27T02:19:48.980Z,44
2017-06-27T02:20:49.272Z,48
2017-06-27T02:21:49.266Z,52
2017-06-27T02:22:49.262Z,56
2017-06-27T02:23:49.274Z,68
2017-06-27T02:24:49.273Z,72
2017-06-27T02:25:49.238Z,84
2017-06-27T02:26:49.233Z,92
2017-06-27T02:27:49.228Z,100
2017-06-27T02:28:49.217Z,112
2017-06-27T02:29:49.217Z,124
2017-06-27T02:30:49.213Z,136
2017-06-27T02:31:49.198Z,148
2017-06-27T02:32:49.194Z,160
2017-06-27T02:33:49.190Z,176
2017-06-27T02:34:49.187Z,196
2017-06-27T02:35:49.193Z,212
2017-06-27T02:36:49.173Z,232
2017-06-27T02:37:49.164Z,252
2017-06-27T02:38:49.158Z,276
2017-06-27T02:39:49.150Z,296
2017-06-27T02:40:49.144Z,320
2017-06-27T02:41:49.138Z,348
2017-06-27T02:42:49.131Z,372
2017-06-27T02:43:49.123Z,400
2017-06-27T02:44:49.115Z,428
2017-06-27T02:45:49.109Z,460
2017-06-27T02:46:49.102Z,488
2017-06-27T02:47:48.795Z,516
2017-06-27T02:48:49.089Z,552
2017-06-27T02:49:49.086Z,588
2017-06-27T02:50:49.080Z,624
2017-06-27T02:51:49.078Z,668
2017-06-27T02:52:49.066Z,704
2017-06-27T02:53:49.056Z,752
2017-06-27T02:54:49.093Z,796
2017-06-27T02:55:49.053Z,848
2017-06-27T02:56:49.037Z,896
2017-06-27T02:57:49.036Z,944
2017-06-27T02:58:49.025Z,996
2017-06-27T02:59:49.037Z,1044
2017-06-27T03:00:49.018Z,1100
2017-06-27T03:01:49.010Z,1152
2017-06-27T03:02:49.002Z,1208
2017-06-27T03:03:48.993Z,1268
2017-06-27T03:04:48.999Z,1328
2017-06-27T03:05:48.977Z,1392
2017-06-27T03:06:48.977Z,1460
2017-06-27T03:07:48.986Z,1520
2017-06-27T03:08:48.979Z,1592
2017-06-27T03:09:48.959Z,1660
2017-06-27T03:10:48.948Z,1728
2017-06-27T03:11:48.950Z,1800
2017-06-27T03:12:48.930Z,1876
2017-06-27T03:13:48.949Z,1948
2017-06-27T03:14:48.941Z,2036
2017-06-27T03:15:48.934Z,2124
2017-06-27T03:16:48.911Z,2216
2017-06-27T03:17:48.919Z,2308
2017-06-27T03:18:48.909Z,2420
2017-06-27T03:19:48.913Z,2544
2017-06-27T03:20:48.581Z,2656
2017-06-27T03:21:48.576Z,2804
2017-06-27T03:22:48.873Z,3012
2017-06-27T03:23:48.886Z,3228
2017-06-27T03:24:48.871Z,3404
2017-06-27T03:25:48.865Z,3544
2017-06-27T03:26:48.859Z,3692
2017-06-27T03:27:48.857Z,3876
2017-06-27T03:28:48.869Z,4128
2017-06-27T03:29:48.846Z,4320
2017-06-27T03:30:48.818Z,4416
2017-06-27T03:31:48.815Z,4524
2017-06-27T03:32:48.810Z,4704
2017-06-27T03:33:48.803Z,4996
2017-06-27T03:34:48.799Z,5280
2017-06-27T03:35:48.809Z,5424
2017-06-27T03:36:48.792Z,5516
2017-06-27T03:37:48.785Z,5708
2017-06-27T03:38:48.777Z,5964
2017-06-27T03:39:48.775Z,6140
2017-06-27T03:40:48.771Z,6324
2017-06-27T03:41:48.764Z,6616
2017-06-27T03:42:48.760Z,6820
2017-06-27T03:43:48.762Z,7012
2017-06-27T03:44:48.751Z,6988
2017-06-27T03:45:48.749Z,7156
2017-06-27T03:46:48.749Z,7416
2017-06-27T03:47:48.738Z,7540
2017-06-27T03:48:48.736Z,7424
2017-06-27T03:49:48.733Z,7548
2017-06-27T03:50:48.430Z,7684
2017-06-27T03:51:48.732Z,7964
2017-06-27T03:52:48.724Z,8248
2017-06-27T03:53:48.725Z,8600
2017-06-27T03:54:48.721Z,8752
2017-06-27T03:55:48.721Z,8964
2017-06-27T03:56:48.410Z,9220
2017-06-27T03:57:48.714Z,9352
2017-06-27T03:58:48.711Z,9332
2017-06-27T03:59:48.709Z,9080
2017-06-27T04:00:48.706Z,9560
2017-06-27T04:01:48.707Z,9684
2017-06-27T04:02:48.708Z,9928
2017-06-27T04:03:48.401Z,9832
2017-06-27T04:04:48.400Z,9176
2017-06-27T04:05:48.399Z,9256
2017-06-27T04:06:48.399Z,10248
2017-06-27T04:07:48.398Z,10760
2017-06-27T04:08:48.706Z,10896
2017-06-27T04:09:48.712Z,11548
2017-06-27T04:10:48.405Z,11800
2017-06-27T04:11:48.707Z,10288
2017-06-27T04:12:48.398Z,10572
2017-06-27T04:13:48.402Z,10604
2017-06-27T04:14:48.703Z,10852
2017-06-27T04:15:48.699Z,10752
2017-06-27T04:16:48.712Z,11240
2017-06-27T04:17:48.405Z,11560
2017-06-27T04:18:48.713Z,12520
2017-06-27T04:19:48.710Z,12744
2017-06-27T04:20:48.719Z,13376
2017-06-27T04:21:48.708Z,13216
2017-06-27T04:22:48.418Z,13376
2017-06-27T04:23:48.721Z,13568
2017-06-27T04:24:48.718Z,13824
2017-06-27T04:25:48.116Z,14912
2017-06-27T04:26:48.721Z,15296
2017-06-27T04:27:48.729Z,14208
2017-06-27T04:28:48.729Z,14656
2017-06-27T04:29:48.730Z,13952
2017-06-27T04:30:48.738Z,16160
2017-06-27T04:31:48.743Z,15264
2017-06-27T04:32:48.745Z,14912
2017-06-27T04:33:48.752Z,16032
2017-06-27T04:34:48.447Z,15712
2017-06-27T04:35:48.757Z,15744
2017-06-27T04:36:48.764Z,15392
2017-06-27T04:37:48.766Z,15200
2017-06-27T04:38:48.770Z,16032
2017-06-27T04:39:48.778Z,16192
2017-06-27T04:40:48.780Z,17216
2017-06-27T04:41:48.793Z,17856
2017-06-27T04:42:48.798Z,20288
2017-06-27T04:43:48.803Z,19296
2017-06-27T04:44:48.804Z,18560
2017-06-27T04:45:48.815Z,21536
2017-06-27T04:46:48.815Z,20896
2017-06-27T04:47:48.820Z,22304
2017-06-27T04:48:48.825Z,23232
2017-06-27T04:49:48.848Z,22880
2017-06-27T04:50:48.540Z,21984
2017-06-27T04:51:48.869Z,23104
2017-06-27T04:52:48.548Z,23872
2017-06-27T04:53:48.877Z,23552
2017-06-27T04:54:48.879Z,24128
2017-06-27T04:55:48.889Z,24096
2017-06-27T04:56:48.893Z,22880
2017-06-27T04:57:48.880Z,20960
2017-06-27T04:58:48.889Z,20160
2017-06-27T04:59:48.907Z,16672
2017-06-27T05:00:48.903Z,14176
2017-06-27T05:01:48.929Z,13540
2017-06-27T05:02:48.933Z,13736
2017-06-27T05:03:48.937Z,15084
2017-06-27T05:04:48.632Z,23520
2017-06-27T05:05:48.956Z,15048
2017-06-27T05:06:48.960Z,14636
2017-06-27T05:07:48.955Z,15904
2017-06-27T05:08:48.975Z,16928
2017-06-27T05:09:48.675Z,16512
2017-06-27T05:10:48.988Z,18048
2017-06-27T05:11:48.995Z,22432
2017-06-27T05:12:48.985Z,28448
2017-06-27T05:13:49.013Z,29888
2017-06-27T05:14:49.017Z,26688
2017-06-27T05:15:49.002Z,23680
2017-06-27T05:16:49.012Z,27776
2017-06-27T05:17:48.709Z,18144
2017-06-27T05:18:49.031Z,16032
2017-06-27T05:19:49.031Z,16000
2017-06-27T05:20:49.041Z,16256
2017-06-27T05:21:48.735Z,16288
2017-06-27T05:22:48.737Z,16192
2017-06-27T05:23:48.742Z,16512
2017-06-27T05:24:49.049Z,16640
2017-06-27T05:25:49.057Z,16288
2017-06-27T05:26:49.077Z,17024
2017-06-27T05:27:49.069Z,17632
2017-06-27T05:28:49.076Z,29824
2017-06-27T05:29:49.097Z,19008
2017-06-27T05:30:49.079Z,23232
2017-06-27T05:31:49.082Z,16576
2017-06-27T05:32:48.784Z,14848
2017-06-27T05:33:48.793Z,15084
2017-06-27T05:34:49.100Z,15872
2017-06-27T05:35:48.796Z,16864
2017-06-27T05:36:49.107Z,27584
2017-06-27T05:37:49.109Z,25536
2017-06-27T05:38:48.822Z,25504
2017-06-27T05:39:49.121Z,29088
2017-06-27T05:40:49.120Z,25920
2017-06-27T05:41:49.134Z,25952
2017-06-27T05:42:49.132Z,30080
2017-06-27T05:43:49.129Z,21696
2017-06-27T05:44:48.830Z,24896
2017-06-27T05:45:49.138Z,25600
2017-06-27T05:46:48.839Z,22720
2017-06-27T05:47:49.143Z,16032
2017-06-27T05:48:49.148Z,15684
2017-06-27T05:49:49.151Z,15552
2017-06-27T05:50:49.155Z,16000
2017-06-27T05:51:49.155Z,17312
2017-06-27T05:52:49.157Z,17632
2017-06-27T05:53:49.178Z,17888
2017-06-27T05:54:49.169Z,15556
2017-06-27T05:55:48.866Z,16960
2017-06-27T05:56:49.177Z,18272
2017-06-27T05:57:49.181Z,19744
2017-06-27T05:58:49.393Z,18272
2017-06-27T05:59:49.185Z,18912
2017-06-27T06:00:49.185Z,20032
2017-06-27T06:01:49.201Z,20704
2017-06-27T06:02:49.190Z,20512
2017-06-27T06:03:49.191Z,20480
2017-06-27T06:04:49.198Z,19520
2017-06-27T06:05:49.196Z,19072
2017-06-27T06:06:49.202Z,18240
2017-06-27T06:07:49.202Z,16864
2017-06-27T06:08:49.211Z,16704
2017-06-27T06:09:48.912Z,16256
2017-06-27T06:10:49.214Z,17024
2017-06-27T06:11:49.218Z,18144
2017-06-27T06:12:48.916Z,19936
2017-06-27T06:13:49.216Z,21504
2017-06-27T06:14:49.222Z,21344
2017-06-27T06:15:49.229Z,20704
2017-06-27T06:16:49.595Z,20192
2017-06-27T06:17:49.240Z,21088
2017-06-27T06:18:48.949Z,23008
2017-06-27T06:19:49.238Z,24544
2017-06-27T06:20:49.240Z,24736
2017-06-27T06:21:49.259Z,32320
2017-06-27T06:22:49.251Z,25952
2017-06-27T06:23:49.255Z,31680
2017-06-27T06:24:49.269Z,34144
2017-06-27T06:25:49.257Z,41952
2017-06-27T06:26:49.257Z,40832
2017-06-27T06:27:49.257Z,27840
2017-06-27T06:28:49.292Z,32224
2017-06-27T06:29:49.267Z,32640
2017-06-27T06:30:49.275Z,36928
2017-06-27T06:31:49.284Z,31840
2017-06-27T06:32:49.286Z,33664
2017-06-27T06:33:49.291Z,33024
2017-06-27T06:34:49.294Z,31680
2017-06-27T06:35:49.296Z,31104
2017-06-27T06:36:49.307Z,28576
2017-06-27T06:37:49.007Z,27296
2017-06-27T06:38:49.016Z,29344
2017-06-27T06:39:49.330Z,32800
2017-06-27T06:40:49.340Z,37856
2017-06-27T06:41:49.341Z,42688
2017-06-27T06:42:49.367Z,44128
2017-06-27T06:43:49.053Z,46208
2017-06-27T06:44:49.365Z,48192
2017-06-27T06:45:49.368Z,48608
2017-06-27T06:46:49.379Z,46592
2017-06-27T06:47:49.392Z,44800
2017-06-27T06:48:49.397Z,45184
2017-06-27T06:49:49.411Z,45600
2017-06-27T06:50:49.119Z,50080
2017-06-27T06:51:49.425Z,52160
2017-06-27T06:52:49.435Z,54656
2017-06-27T06:53:49.450Z,59584
2017-06-27T06:54:49.460Z,66176
2017-06-27T06:55:49.490Z,69696
2017-06-27T06:56:49.474Z,77312
2017-06-27T06:57:49.480Z,83776
2017-06-27T06:58:49.493Z,86944
2017-06-27T06:59:49.504Z,103968
2017-06-27T07:00:49.519Z,89440
2017-06-27T07:01:49.528Z,81312
2017-06-27T07:02:49.234Z,72288
2017-06-27T07:03:49.250Z,78848
2017-06-27T07:04:49.592Z,77312
2017-06-27T07:05:49.575Z,78912
2017-06-27T07:06:49.583Z,81248
2017-06-27T07:07:49.594Z,81440
2017-06-27T07:08:49.604Z,87232
2017-06-27T07:09:49.656Z,100704
2017-06-27T07:10:49.629Z,110176
2017-06-27T07:11:49.638Z,118400
2017-06-27T07:12:49.353Z,128800
2017-06-27T07:13:49.365Z,116896
2017-06-27T07:14:49.678Z,114144
2017-06-27T07:15:49.690Z,131968
2017-06-27T07:16:49.706Z,114336
2017-06-27T07:17:49.718Z,110496
2017-06-27T07:18:49.429Z,119840
2017-06-27T07:19:49.744Z,121024
2017-06-27T07:20:49.458Z,132544
2017-06-27T07:21:49.778Z,131552
2017-06-27T07:22:49.785Z,136864
2017-06-27T07:23:49.797Z,145920
2017-06-27T07:24:49.813Z,126208
2017-06-27T07:25:49.824Z,117440
2017-06-27T07:26:49.843Z,103616
2017-06-27T07:27:49.855Z,106240
2017-06-27T07:28:49.870Z,96704
2017-06-27T07:29:49.882Z,100640
2017-06-27T07:30:49.899Z,85952
2017-06-27T07:31:49.915Z,85760
2017-06-27T07:32:49.933Z,70976
2017-06-27T07:33:49.941Z,67840
2017-06-27T07:34:49.959Z,72992
2017-06-27T07:35:49.974Z,72064
2017-06-27T07:36:49.986Z,71552
2017-06-27T07:37:50.000Z,76288
2017-06-27T07:38:50.011Z,85792
2017-06-27T07:39:50.024Z,93024
2017-06-27T07:40:50.044Z,94720
2017-06-27T07:41:50.061Z,99104
2017-06-27T07:42:50.074Z,98240
2017-06-27T07:43:50.125Z,94912
2017-06-27T07:44:50.105Z,86816
2017-06-27T07:45:50.126Z,81728
2017-06-27T07:46:50.138Z,67008
2017-06-27T07:47:50.172Z,64416
2017-06-27T07:48:50.170Z,52384
2017-06-27T07:49:50.187Z,44448
2017-06-27T07:50:49.898Z,38400
2017-06-27T07:51:50.212Z,35872
2017-06-27T07:52:50.234Z,37216
2017-06-27T07:53:50.250Z,36992
2017-06-27T07:54:49.967Z,36320
2017-06-27T07:55:50.283Z,34208
2017-06-27T07:56:49.997Z,37760
2017-06-27T07:57:50.318Z,39584
2017-06-27T07:58:50.335Z,44000
2017-06-27T07:59:50.347Z,46432
2017-06-27T08:00:50.061Z,36960
2017-06-27T08:01:50.075Z,37568
2017-06-27T08:02:50.397Z,32800
2017-06-27T08:03:50.416Z,35072
2017-06-27T08:04:50.426Z,32064
2017-06-27T08:05:50.446Z,27712
2017-06-27T08:06:50.454Z,34784
2017-06-27T08:07:50.473Z,38272
2017-06-27T08:08:50.492Z,39296
2017-06-27T08:09:50.503Z,32800
2017-06-27T08:10:50.511Z,51616
2017-06-27T08:11:50.527Z,48096
2017-06-27T08:12:50.540Z,45152
2017-06-27T08:13:50.582Z,54528
2017-06-27T08:14:50.569Z,43744
2017-06-27T08:15:50.585Z,35840
2017-06-27T08:16:50.595Z,50368
2017-06-27T08:17:50.606Z,44416
2017-06-27T08:18:50.617Z,38816
2017-06-27T08:19:50.630Z,43936
2017-06-27T08:20:50.339Z,39200
2017-06-27T08:21:50.655Z,51840
2017-06-27T08:22:50.669Z,57664
2017-06-27T08:23:50.682Z,52096
2017-06-27T08:24:50.692Z,53184
2017-06-27T08:25:50.706Z,54816
2017-06-27T08:26:50.715Z,59072
2017-06-27T08:27:50.727Z,67424
2017-06-27T08:28:50.740Z,60064
2017-06-27T08:29:50.750Z,53792
2017-06-27T08:30:50.762Z,58272
2017-06-27T08:31:50.777Z,60064
2017-06-27T08:32:50.488Z,66208
2017-06-27T08:33:50.827Z,60000
2017-06-27T08:34:50.812Z,65728
2017-06-27T08:35:50.829Z,65184
2017-06-27T08:36:50.837Z,59136
2017-06-27T08:37:50.560Z,77248
2017-06-27T08:38:50.858Z,75520
2017-06-27T08:39:50.864Z,70848
2017-06-27T08:40:50.583Z,61664
2017-06-27T08:41:50.891Z,46560
2017-06-27T08:42:50.907Z,56640
2017-06-27T08:43:50.917Z,67776
2017-06-27T08:44:50.939Z,64320
2017-06-27T08:45:50.941Z,59872
2017-06-27T08:46:50.948Z,60928
2017-06-27T08:47:50.962Z,66784
2017-06-27T08:48:50.969Z,58048
2017-06-27T08:49:50.681Z,59392
2017-06-27T08:50:50.994Z,67040
2017-06-27T08:51:51.011Z,62272
2017-06-27T08:52:50.963Z,52064
2017-06-27T08:53:51.033Z,52416
2017-06-27T08:54:51.044Z,71200
2017-06-27T08:55:51.055Z,64032
2017-06-27T08:56:50.460Z,70208
2017-06-27T08:57:51.073Z,87520
2017-06-27T08:58:51.086Z,84064
2017-06-27T08:59:50.793Z,71616
2017-06-27T09:00:51.116Z,82912
2017-06-27T09:01:50.818Z,61856
2017-06-27T09:02:51.146Z,35264
2017-06-27T09:03:51.155Z,31552
2017-06-27T09:04:50.850Z,31136
2017-06-27T09:05:50.861Z,31168
2017-06-27T09:06:50.869Z,31200
2017-06-27T09:07:50.879Z,31328
2017-06-27T09:08:51.202Z,31168
2017-06-27T09:09:51.205Z,31072
2017-06-27T09:10:50.613Z,30752
2017-06-27T09:11:50.943Z,30304
2017-06-27T09:12:51.237Z,29792
2017-06-27T09:13:51.252Z,29632
2017-06-27T09:14:50.954Z,29696
2017-06-27T09:15:50.979Z,29792
2017-06-27T09:16:51.001Z,29600
2017-06-27T09:17:50.984Z,29248
2017-06-27T09:18:51.294Z,28960
2017-06-27T09:19:51.316Z,28896
2017-06-27T09:20:51.322Z,28736
2017-06-27T09:21:51.329Z,28320
2017-06-27T09:22:51.333Z,27776
2017-06-27T09:23:51.368Z,27264
2017-06-27T09:24:51.576Z,26848
2017-06-27T09:25:51.725Z,26368
2017-06-27T09:26:51.371Z,26112
2017-06-27T09:27:50.780Z,26048
2017-06-27T09:28:51.385Z,25952
2017-06-27T09:29:51.092Z,26016
2017-06-27T09:30:51.406Z,26048
2017-06-27T09:31:51.639Z,25824
2017-06-27T09:32:51.436Z,25824
2017-06-27T09:33:51.429Z,25728
2017-06-27T09:34:51.134Z,25824
2017-06-27T09:35:51.162Z,25952
2017-06-27T09:36:51.482Z,25888
2017-06-27T09:37:51.458Z,25920
2017-06-27T09:38:51.170Z,25920
2017-06-27T09:39:51.481Z,25760
2017-06-27T09:40:51.491Z,25504
2017-06-27T09:41:51.498Z,25280
2017-06-27T09:42:51.520Z,24928
2017-06-27T09:43:51.206Z,24864
2017-06-27T09:44:51.519Z,24896
2017-06-27T09:45:51.526Z,24800
2017-06-27T09:46:51.552Z,24448
2017-06-27T09:47:51.567Z,24576
2017-06-27T09:48:51.549Z,24416
2017-06-27T09:49:51.252Z,24192
2017-06-27T09:50:51.561Z,23936
2017-06-27T09:51:51.568Z,23776
2017-06-27T09:52:51.276Z,23488
2017-06-27T09:53:51.278Z,23296
2017-06-27T09:54:51.290Z,23328
2017-06-27T09:55:51.301Z,23552
2017-06-27T09:56:51.605Z,23808
2017-06-27T09:57:51.314Z,23616
2017-06-27T09:58:51.624Z,23392
2017-06-27T09:59:51.326Z,23200
2017-06-27T10:00:51.639Z,23072
2017-06-27T10:01:51.639Z,23200
2017-06-27T10:02:51.650Z,23296
2017-06-27T10:03:51.695Z,23360
2017-06-27T10:04:51.362Z,23776
2017-06-27T10:05:51.670Z,23808
2017-06-27T10:06:51.675Z,23712
2017-06-27T10:07:51.683Z,23840
2017-06-27T10:08:51.389Z,24160
2017-06-27T10:09:51.710Z,24416
2017-06-27T10:10:51.704Z,24608
2017-06-27T10:11:51.108Z,24768
2017-06-27T10:12:51.724Z,24768
2017-06-27T10:13:51.730Z,24704
2017-06-27T10:14:51.731Z,24672
2017-06-27T10:15:51.438Z,24832
2017-06-27T10:16:51.441Z,25152
2017-06-27T10:17:51.758Z,25376
2017-06-27T10:18:51.762Z,25184
2017-06-27T10:19:51.767Z,24704
2017-06-27T10:20:51.774Z,24320
2017-06-27T10:21:51.477Z,23744
2017-06-27T10:22:51.490Z,23456
2017-06-27T10:23:51.208Z,23296
2017-06-27T10:24:51.828Z,23392
2017-06-27T10:25:51.508Z,23328
2017-06-27T10:26:51.818Z,23456
2017-06-27T10:27:51.822Z,23328
2017-06-27T10:28:51.830Z,23136
2017-06-27T10:29:51.841Z,23264
2017-06-27T10:30:51.848Z,23296
2017-06-27T10:31:51.855Z,22976
2017-06-27T10:32:52.155Z,22432
2017-06-27T10:33:51.861Z,22112
2017-06-27T10:34:51.566Z,21920
2017-06-27T10:35:51.874Z,21696
2017-06-27T10:36:51.577Z,21568
2017-06-27T10:37:51.279Z,21344
2017-06-27T10:38:51.287Z,21312
2017-06-27T10:39:51.908Z,21376
2017-06-27T10:40:51.907Z,21536
2017-06-27T10:41:51.911Z,21376
2017-06-27T10:42:51.925Z,21216
2017-06-27T10:43:51.625Z,21312
2017-06-27T10:44:51.328Z,21344
2017-06-27T10:45:51.332Z,21504
2017-06-27T10:46:51.340Z,21824
2017-06-27T10:47:51.341Z,22336
2017-06-27T10:48:51.351Z,22624
2017-06-27T10:49:51.962Z,22784
2017-06-27T10:50:51.668Z,22880
2017-06-27T10:51:51.677Z,23168
2017-06-27T10:52:51.981Z,23328
2017-06-27T10:53:51.381Z,23488
2017-06-27T10:54:51.389Z,23712
2017-06-27T10:55:52.006Z,23808
2017-06-27T10:56:51.703Z,23904
2017-06-27T10:57:52.012Z,23968
2017-06-27T10:58:51.416Z,24064
2017-06-27T10:59:51.418Z,24128
2017-06-27T11:00:51.427Z,24224
2017-06-27T11:01:51.432Z,24384
2017-06-27T11:02:52.050Z,24576
2017-06-27T11:03:51.747Z,24672
2017-06-27T11:04:51.755Z,24704
2017-06-27T11:05:52.061Z,24800
2017-06-27T11:06:51.667Z,24928
2017-06-27T11:07:51.770Z,25088
2017-06-27T11:08:52.305Z,25248
2017-06-27T11:09:52.089Z,25376
2017-06-27T11:10:51.484Z,25472
2017-06-27T11:11:51.496Z,25504
2017-06-27T11:12:52.108Z,25440
2017-06-27T11:13:52.116Z,25280
2017-06-27T11:14:52.129Z,25152
2017-06-27T11:15:52.125Z,25056
2017-06-27T11:16:52.138Z,25024
2017-06-27T11:17:52.138Z,24992
2017-06-27T11:18:52.143Z,24960
2017-06-27T11:19:51.855Z,24928
2017-06-27T11:20:52.159Z,24896
2017-06-27T11:21:52.165Z,24864
2017-06-27T11:22:51.564Z,24704
2017-06-27T11:23:52.175Z,24544
2017-06-27T11:24:52.188Z,24384
2017-06-27T11:25:51.610Z,24352
2017-06-27T11:26:52.200Z,24448
2017-06-27T11:27:52.207Z,24576
2017-06-27T11:28:52.211Z,24736
2017-06-27T11:29:52.223Z,24832
2017-06-27T11:30:52.224Z,24928
2017-06-27T11:31:52.227Z,24960
2017-06-27T11:32:51.932Z,25120
2017-06-27T11:33:52.284Z,25248
2017-06-27T11:34:52.257Z,25344
2017-06-27T11:35:51.958Z,25376
2017-06-27T11:36:52.263Z,25376
2017-06-27T11:37:52.269Z,25344
2017-06-27T11:38:51.976Z,25344
2017-06-27T11:39:51.979Z,25376
2017-06-27T11:40:51.684Z,25440
2017-06-27T11:41:51.695Z,25536
2017-06-27T11:42:51.701Z,25664
2017-06-27T11:43:52.306Z,25792
2017-06-27T11:44:52.012Z,25920
2017-06-27T11:45:52.321Z,26112
2017-06-27T11:46:52.338Z,26272
2017-06-27T11:47:52.037Z,26368
2017-06-27T11:48:52.037Z,26432
2017-06-27T11:49:52.354Z,26528
2017-06-27T11:50:52.355Z,26688
2017-06-27T11:51:52.363Z,26848
2017-06-27T11:52:52.069Z,27008
2017-06-27T11:53:52.072Z,27104
2017-06-27T11:54:52.077Z,27136
2017-06-27T11:55:52.397Z,27168
2017-06-27T11:56:51.791Z,27200
2017-06-27T11:57:52.404Z,27200
2017-06-27T11:58:51.805Z,27072
2017-06-27T11:59:51.816Z,26880
2017-06-27T12:00:52.427Z,26752
2017-06-27T12:01:52.138Z,26592
2017-06-27T12:02:52.442Z,26464
2017-06-27T12:03:52.147Z,26464
2017-06-27T12:04:51.852Z,26400
2017-06-27T12:05:52.463Z,26336
2017-06-27T12:06:51.865Z,26272
2017-06-27T12:07:52.477Z,26240
2017-06-27T12:08:52.487Z,26336
2017-06-27T12:09:52.187Z,26304
2017-06-27T12:10:52.499Z,26304
2017-06-27T12:11:52.204Z,26304
2017-06-27T12:12:52.514Z,26272
2017-06-27T12:13:51.912Z,26208
2017-06-27T12:14:52.529Z,26080
2017-06-27T12:15:52.231Z,25952
2017-06-27T12:16:52.236Z,25760
2017-06-27T12:17:52.892Z,25600
2017-06-27T12:18:52.553Z,25440
2017-06-27T12:19:52.254Z,25344
2017-06-27T12:20:52.566Z,25312
2017-06-27T12:21:52.575Z,25248
2017-06-27T12:22:52.579Z,25152
2017-06-27T12:23:52.284Z,25184
2017-06-27T12:24:52.591Z,25152
2017-06-27T12:25:52.597Z,25248
2017-06-27T12:26:52.608Z,25248
2017-06-27T12:27:52.616Z,25248
2017-06-27T12:28:52.621Z,25216
2017-06-27T12:29:52.329Z,25088
2017-06-27T12:30:52.330Z,24928
2017-06-27T12:31:52.639Z,24608
2017-06-27T12:32:52.342Z,24320
2017-06-27T12:33:52.349Z,24032
2017-06-27T12:34:52.658Z,23776
2017-06-27T12:35:52.670Z,23552
2017-06-27T12:36:52.673Z,23392
2017-06-27T12:37:52.377Z,23296
2017-06-27T12:38:52.683Z,23200
2017-06-27T12:39:52.699Z,23040
2017-06-27T12:40:52.701Z,22976
2017-06-27T12:41:52.710Z,22848
2017-06-27T12:42:52.712Z,22784
2017-06-27T12:43:52.720Z,22656
2017-06-27T12:44:52.727Z,22592
2017-06-27T12:45:52.732Z,22528
2017-06-27T12:46:52.437Z,22432
2017-06-27T12:47:52.746Z,22464
2017-06-27T12:48:52.762Z,22592
2017-06-27T12:49:52.758Z,22624
2017-06-27T12:50:52.766Z,22496
2017-06-27T12:51:52.767Z,22400
2017-06-27T12:52:52.777Z,22368
2017-06-27T12:53:52.780Z,22240
2017-06-27T12:54:52.491Z,21952
2017-06-27T12:55:52.796Z,21568
2017-06-27T12:56:52.503Z,21152
2017-06-27T12:57:52.811Z,20704
2017-06-27T12:58:52.810Z,20256
2017-06-27T12:59:52.814Z,19808
2017-06-27T13:00:52.822Z,19424
2017-06-27T13:01:52.828Z,19104
2017-06-27T13:02:52.845Z,18880
2017-06-27T13:03:52.848Z,18688
2017-06-27T13:04:52.851Z,18560
2017-06-27T13:05:52.553Z,18400
2017-06-27T13:06:52.861Z,18304
2017-06-27T13:07:52.865Z,18272
2017-06-27T13:08:52.875Z,18272
2017-06-27T13:09:52.879Z,18240
2017-06-27T13:10:52.888Z,18176
2017-06-27T13:11:52.593Z,18144
2017-06-27T13:12:52.595Z,18080
2017-06-27T13:13:52.907Z,18048
2017-06-27T13:14:52.912Z,18048